sensor_id;sensor_type;location;lat;lon;timestamp;pressure;altitude;pressure_sealevel;temperature;humidity
58223;BME280;44020;50.890;15.796;2022-09-28T00:00:25;95973.81;;;7.96;91.10
58223;BME280;44020;50.890;15.796;2022-09-28T00:03:12;95970.99;;;7.96;91.11
58223;BME280;44020;50.890;15.796;2022-09-28T00:05:39;95971.56;;;7.98;91.44
58223;BME280;44020;50.890;15.796;2022-09-28T00:08:06;95972.83;;;7.99;91.50
58223;BME280;44020;50.890;15.796;2022-09-28T00:10:33;95971.70;;;8.00;91.47
58223;BME280;44020;50.890;15.796;2022-09-28T00:13:00;95970.04;;;8.01;91.56
58223;BME280;44020;50.890;15.796;2022-09-28T00:15:28;95970.60;;;8.01;91.41
58223;BME280;44020;50.890;15.796;2022-09-28T00:17:55;95972.71;;;8.01;91.81
58223;BME280;44020;50.890;15.796;2022-09-28T00:20:25;95971.73;;;8.01;91.70
58223;BME280;44020;50.890;15.796;2022-09-28T00:22:53;95968.60;;;8.03;91.74
58223;BME280;44020;50.890;15.796;2022-09-28T00:25:20;95960.27;;;8.05;91.80
58223;BME280;44020;50.890;15.796;2022-09-28T00:27:50;95955.33;;;8.05;91.74
58223;BME280;44020;50.890;15.796;2022-09-28T00:30:18;95954.77;;;8.03;91.62
58223;BME280;44020;50.890;15.796;2022-09-28T00:32:47;95955.83;;;8.02;91.48
58223;BME280;44020;50.890;15.796;2022-09-28T00:35:15;95957.72;;;8.00;91.67
58223;BME280;44020;50.890;15.796;2022-09-28T00:37:47;95955.02;;;8.01;91.84
58223;BME280;44020;50.890;15.796;2022-09-28T00:40:16;95955.04;;;8.00;91.77
58223;BME280;44020;50.890;15.796;2022-09-28T00:42:44;95955.14;;;7.99;91.75
58223;BME280;44020;50.890;15.796;2022-09-28T00:45:14;95954.95;;;7.99;91.90
58223;BME280;44020;50.890;15.796;2022-09-28T00:47:48;95952.64;;;8.00;91.91
58223;BME280;44020;50.890;15.796;2022-09-28T00:50:33;95943.06;;;8.00;92.12
58223;BME280;44020;50.890;15.796;2022-09-28T00:53:29;95941.05;;;8.01;92.09
58223;BME280;44020;50.890;15.796;2022-09-28T00:56:10;95939.95;;;8.01;92.31
58223;BME280;44020;50.890;15.796;2022-09-28T00:58:44;95937.33;;;8.01;92.14
58223;BME280;44020;50.890;15.796;2022-09-28T01:01:15;95933.42;;;8.01;92.27
58223;BME280;44020;50.890;15.796;2022-09-28T01:03:43;95929.51;;;8.01;92.19
58223;BME280;44020;50.890;15.796;2022-09-28T01:06:22;95931.54;;;8.02;92.18
58223;BME280;44020;50.890;15.796;2022-09-28T01:08:58;95929.19;;;8.03;92.36
58223;BME280;44020;50.890;15.796;2022-09-28T01:11:32;95935.01;;;8.03;92.43
58223;BME280;44020;50.890;15.796;2022-09-28T01:14:07;95931.84;;;8.03;92.46
58223;BME280;44020;50.890;15.796;2022-09-28T01:16:56;95929.51;;;8.03;92.38
58223;BME280;44020;50.890;15.796;2022-09-28T01:27:58;95939.77;;;7.99;92.26
58223;BME280;44020;50.890;15.796;2022-09-28T01:31:01;95943.74;;;7.96;92.33
58223;BME280;44020;50.890;15.796;2022-09-28T01:34:09;95941.45;;;7.96;92.31
58223;BME280;44020;50.890;15.796;2022-09-28T01:36:46;95934.89;;;7.97;92.59
58223;BME280;44020;50.890;15.796;2022-09-28T01:39:29;95935.73;;;7.95;92.53
58223;BME280;44020;50.890;15.796;2022-09-28T01:42:03;95927.55;;;7.93;92.53
58223;BME280;44020;50.890;15.796;2022-09-28T01:44:35;95927.27;;;7.93;92.58
58223;BME280;44020;50.890;15.796;2022-09-28T01:47:13;95926.73;;;7.95;92.63
58223;BME280;44020;50.890;15.796;2022-09-28T01:49:49;95923.25;;;7.96;92.74
58223;BME280;44020;50.890;15.796;2022-09-28T01:52:25;95918.14;;;7.96;92.65
58223;BME280;44020;50.890;15.796;2022-09-28T01:55:01;95911.28;;;7.96;92.64
58223;BME280;44020;50.890;15.796;2022-09-28T02:01:01;95914.35;;;7.97;92.64
58223;BME280;44020;50.890;15.796;2022-09-28T02:03:46;95908.85;;;7.97;92.91
58223;BME280;44020;50.890;15.796;2022-09-28T02:06:52;95900.22;;;7.98;93.08
58223;BME280;44020;50.890;15.796;2022-09-28T02:09:22;95898.80;;;7.99;92.87
58223;BME280;44020;50.890;15.796;2022-09-28T02:11:58;95897.60;;;7.98;92.92
58223;BME280;44020;50.890;15.796;2022-09-28T02:14:29;95902.15;;;7.97;92.98
58223;BME280;44020;50.890;15.796;2022-09-28T02:16:57;95901.70;;;7.96;92.99
58223;BME280;44020;50.890;15.796;2022-09-28T02:19:26;95903.77;;;7.97;93.36
58223;BME280;44020;50.890;15.796;2022-09-28T02:27:10;95900.09;;;7.98;93.25
58223;BME280;44020;50.890;15.796;2022-09-28T02:29:40;95898.80;;;7.97;93.46
58223;BME280;44020;50.890;15.796;2022-09-28T02:32:08;95896.02;;;7.96;93.23
58223;BME280;44020;50.890;15.796;2022-09-28T02:34:35;95898.45;;;7.95;93.33
58223;BME280;44020;50.890;15.796;2022-09-28T02:37:03;95898.70;;;7.94;93.48
58223;BME280;44020;50.890;15.796;2022-09-28T02:39:30;95898.17;;;7.92;93.29
58223;BME280;44020;50.890;15.796;2022-09-28T02:50:20;95895.79;;;7.85;93.22
58223;BME280;44020;50.890;15.796;2022-09-28T02:53:10;95891.45;;;7.80;93.05
58223;BME280;44020;50.890;15.796;2022-09-28T02:56:48;95890.69;;;7.79;93.40
58223;BME280;44020;50.890;15.796;2022-09-28T03:10:23;95895.66;;;7.66;93.14
58223;BME280;44020;50.890;15.796;2022-09-28T03:12:53;95899.75;;;7.64;93.04
58223;BME280;44020;50.890;15.796;2022-09-28T03:15:26;95898.30;;;7.58;92.79
58223;BME280;44020;50.890;15.796;2022-09-28T03:17:55;95894.05;;;7.52;92.87
58223;BME280;44020;50.890;15.796;2022-09-28T03:20:23;95893.77;;;7.51;92.93
58223;BME280;44020;50.890;15.796;2022-09-28T03:22:51;95888.94;;;7.48;92.85
58223;BME280;44020;50.890;15.796;2022-09-28T03:25:18;95890.84;;;7.42;92.44
58223;BME280;44020;50.890;15.796;2022-09-28T03:27:45;95889.25;;;7.36;92.49
58223;BME280;44020;50.890;15.796;2022-09-28T03:30:12;95885.17;;;7.32;92.47
58223;BME280;44020;50.890;15.796;2022-09-28T03:32:39;95885.27;;;7.25;92.34
58223;BME280;44020;50.890;15.796;2022-09-28T03:35:07;95885.02;;;7.20;92.17
58223;BME280;44020;50.890;15.796;2022-09-28T03:37:35;95884.14;;;7.18;92.27
58223;BME280;44020;50.890;15.796;2022-09-28T03:40:03;95882.67;;;7.14;92.02
58223;BME280;44020;50.890;15.796;2022-09-28T03:42:30;95880.02;;;7.10;91.98
58223;BME280;44020;50.890;15.796;2022-09-28T03:44:57;95880.55;;;7.06;91.82
58223;BME280;44020;50.890;15.796;2022-09-28T03:47:24;95887.01;;;7.00;91.80
58223;BME280;44020;50.890;15.796;2022-09-28T03:49:51;95885.13;;;6.94;91.30
58223;BME280;44020;50.890;15.796;2022-09-28T03:52:18;95883.99;;;6.90;91.59
58223;BME280;44020;50.890;15.796;2022-09-28T03:54:45;95882.66;;;6.89;91.67
58223;BME280;44020;50.890;15.796;2022-09-28T03:57:12;95882.17;;;6.87;91.70
58223;BME280;44020;50.890;15.796;2022-09-28T03:59:39;95885.61;;;6.85;91.60
58223;BME280;44020;50.890;15.796;2022-09-28T04:02:06;95880.71;;;6.87;91.92
58223;BME280;44020;50.890;15.796;2022-09-28T04:04:34;95877.31;;;6.87;91.94
58223;BME280;44020;50.890;15.796;2022-09-28T04:07:02;95871.68;;;6.87;91.44
58223;BME280;44020;50.890;15.796;2022-09-28T04:09:29;95873.95;;;6.85;91.44
58223;BME280;44020;50.890;15.796;2022-09-28T04:11:55;95872.70;;;6.84;91.42
58223;BME280;44020;50.890;15.796;2022-09-28T04:14:22;95872.57;;;6.85;91.36
58223;BME280;44020;50.890;15.796;2022-09-28T04:16:50;95868.90;;;6.87;91.65
58223;BME280;44020;50.890;15.796;2022-09-28T04:19:20;95865.20;;;6.85;91.21
58223;BME280;44020;50.890;15.796;2022-09-28T04:21:48;95861.36;;;6.82;91.43
58223;BME280;44020;50.890;15.796;2022-09-28T04:24:18;95863.50;;;6.82;91.65
58223;BME280;44020;50.890;15.796;2022-09-28T04:26:46;95863.02;;;6.83;91.59
58223;BME280;44020;50.890;15.796;2022-09-28T04:29:13;95853.91;;;6.85;91.72
58223;BME280;44020;50.890;15.796;2022-09-28T04:31:44;95856.05;;;6.86;92.04
58223;BME280;44020;50.890;15.796;2022-09-28T04:34:13;95851.60;;;6.89;92.18
58223;BME280;44020;50.890;15.796;2022-09-28T04:36:43;95852.67;;;6.91;92.02
58223;BME280;44020;50.890;15.796;2022-09-28T04:39:12;95848.64;;;6.93;92.21
58223;BME280;44020;50.890;15.796;2022-09-28T04:41:40;95847.70;;;6.94;92.14
58223;BME280;44020;50.890;15.796;2022-09-28T04:44:08;95844.69;;;6.94;91.99
58223;BME280;44020;50.890;15.796;2022-09-28T04:46:35;95840.27;;;6.94;92.10
58223;BME280;44020;50.890;15.796;2022-09-28T04:49:02;95837.42;;;6.92;91.86
58223;BME280;44020;50.890;15.796;2022-09-28T04:51:30;95837.89;;;6.88;92.14
58223;BME280;44020;50.890;15.796;2022-09-28T04:53:58;95830.86;;;6.86;92.17
58223;BME280;44020;50.890;15.796;2022-09-28T04:56:25;95829.98;;;6.84;91.68
58223;BME280;44020;50.890;15.796;2022-09-28T04:58:52;95827.75;;;6.81;91.85
58223;BME280;44020;50.890;15.796;2022-09-28T05:01:19;95825.23;;;6.77;91.97
58223;BME280;44020;50.890;15.796;2022-09-28T05:03:49;95827.86;;;6.75;92.00
58223;BME280;44020;50.890;15.796;2022-09-28T05:06:17;95833.55;;;6.73;91.52
58223;BME280;44020;50.890;15.796;2022-09-28T05:08:43;95839.41;;;6.73;91.99
58223;BME280;44020;50.890;15.796;2022-09-28T05:11:13;95840.63;;;6.73;91.92
58223;BME280;44020;50.890;15.796;2022-09-28T05:13:43;95850.79;;;6.74;91.83
58223;BME280;44020;50.890;15.796;2022-09-28T05:16:12;95854.61;;;6.75;91.82
58223;BME280;44020;50.890;15.796;2022-09-28T05:18:39;95857.98;;;6.74;91.89
58223;BME280;44020;50.890;15.796;2022-09-28T05:21:10;95857.00;;;6.75;91.56
58223;BME280;44020;50.890;15.796;2022-09-28T05:23:39;95860.61;;;6.76;91.78
58223;BME280;44020;50.890;15.796;2022-09-28T05:26:06;95856.39;;;6.76;91.73
58223;BME280;44020;50.890;15.796;2022-09-28T05:28:33;95847.13;;;6.77;91.95
58223;BME280;44020;50.890;15.796;2022-09-28T05:31:02;95851.79;;;6.78;92.03
58223;BME280;44020;50.890;15.796;2022-09-28T05:33:31;95850.23;;;6.78;91.68
58223;BME280;44020;50.890;15.796;2022-09-28T05:35:59;95843.80;;;6.77;91.84
58223;BME280;44020;50.890;15.796;2022-09-28T05:38:32;95843.66;;;6.79;91.71
58223;BME280;44020;50.890;15.796;2022-09-28T05:41:00;95838.73;;;6.81;92.06
58223;BME280;44020;50.890;15.796;2022-09-28T05:43:27;95839.41;;;6.83;92.02
58223;BME280;44020;50.890;15.796;2022-09-28T05:45:54;95836.79;;;6.85;92.06
58223;BME280;44020;50.890;15.796;2022-09-28T05:48:22;95835.16;;;6.85;91.97
58223;BME280;44020;50.890;15.796;2022-09-28T05:50:50;95833.79;;;6.87;92.24
58223;BME280;44020;50.890;15.796;2022-09-28T05:53:18;95831.84;;;6.89;92.40
58223;BME280;44020;50.890;15.796;2022-09-28T05:55:45;95831.66;;;6.91;92.39
58223;BME280;44020;50.890;15.796;2022-09-28T05:58:13;95825.48;;;6.94;92.29
58223;BME280;44020;50.890;15.796;2022-09-28T06:00:40;95829.87;;;6.98;92.56
58223;BME280;44020;50.890;15.796;2022-09-28T06:03:10;95824.23;;;7.00;92.49
58223;BME280;44020;50.890;15.796;2022-09-28T06:05:38;95821.95;;;7.02;92.36
58223;BME280;44020;50.890;15.796;2022-09-28T06:08:07;95817.60;;;7.03;92.51
58223;BME280;44020;50.890;15.796;2022-09-28T06:10:36;95812.32;;;7.04;92.73
58223;BME280;44020;50.890;15.796;2022-09-28T06:13:05;95806.39;;;7.08;92.93
58223;BME280;44020;50.890;15.796;2022-09-28T06:15:34;95804.30;;;7.12;92.87
58223;BME280;44020;50.890;15.796;2022-09-28T06:18:08;95805.48;;;7.14;92.94
58223;BME280;44020;50.890;15.796;2022-09-28T06:20:37;95805.93;;;7.19;93.06
58223;BME280;44020;50.890;15.796;2022-09-28T06:23:09;95807.71;;;7.25;92.90
58223;BME280;44020;50.890;15.796;2022-09-28T06:25:37;95809.23;;;7.30;93.10
58223;BME280;44020;50.890;15.796;2022-09-28T06:28:08;95811.71;;;7.34;92.87
58223;BME280;44020;50.890;15.796;2022-09-28T06:30:36;95815.05;;;7.36;92.95
58223;BME280;44020;50.890;15.796;2022-09-28T06:33:09;95813.77;;;7.39;92.73
58223;BME280;44020;50.890;15.796;2022-09-28T06:35:36;95803.98;;;7.43;93.02
58223;BME280;44020;50.890;15.796;2022-09-28T06:38:03;95798.44;;;7.50;93.06
58223;BME280;44020;50.890;15.796;2022-09-28T06:40:30;95798.38;;;7.57;93.11
58223;BME280;44020;50.890;15.796;2022-09-28T06:43:00;95797.27;;;7.63;93.22
58223;BME280;44020;50.890;15.796;2022-09-28T06:45:29;95791.33;;;7.70;93.03
58223;BME280;44020;50.890;15.796;2022-09-28T06:47:58;95781.19;;;7.77;93.26
58223;BME280;44020;50.890;15.796;2022-09-28T06:50:32;95775.02;;;7.85;93.30
58223;BME280;44020;50.890;15.796;2022-09-28T06:53:00;95770.27;;;7.92;93.18
58223;BME280;44020;50.890;15.796;2022-09-28T06:55:27;95770.88;;;8.01;93.25
58223;BME280;44020;50.890;15.796;2022-09-28T06:58:04;95774.31;;;8.12;93.31
58223;BME280;44020;50.890;15.796;2022-09-28T07:00:33;95774.84;;;8.24;93.10
58223;BME280;44020;50.890;15.796;2022-09-28T07:03:02;95771.44;;;8.32;93.24
58223;BME280;44020;50.890;15.796;2022-09-28T07:05:31;95764.83;;;8.38;93.36
58223;BME280;44020;50.890;15.796;2022-09-28T07:08:01;95760.68;;;8.43;93.29
58223;BME280;44020;50.890;15.796;2022-09-28T07:10:29;95760.50;;;8.49;93.28
58223;BME280;44020;50.890;15.796;2022-09-28T07:12:59;95758.77;;;8.54;93.16
58223;BME280;44020;50.890;15.796;2022-09-28T07:15:29;95759.08;;;8.59;93.21
58223;BME280;44020;50.890;15.796;2022-09-28T07:17:57;95757.60;;;8.61;93.23
58223;BME280;44020;50.890;15.796;2022-09-28T07:20:25;95750.61;;;8.64;93.24
58223;BME280;44020;50.890;15.796;2022-09-28T07:22:56;95751.02;;;8.67;93.18
58223;BME280;44020;50.890;15.796;2022-09-28T07:25:25;95750.55;;;8.70;93.11
58223;BME280;44020;50.890;15.796;2022-09-28T07:27:56;95750.71;;;8.74;93.16
58223;BME280;44020;50.890;15.796;2022-09-28T07:30:23;95745.94;;;8.82;93.19
58223;BME280;44020;50.890;15.796;2022-09-28T07:32:53;95746.14;;;8.87;93.21
58223;BME280;44020;50.890;15.796;2022-09-28T07:35:20;95745.73;;;8.91;93.10
58223;BME280;44020;50.890;15.796;2022-09-28T07:37:47;95744.73;;;8.96;93.12
58223;BME280;44020;50.890;15.796;2022-09-28T07:40:14;95746.34;;;9.00;93.17
58223;BME280;44020;50.890;15.796;2022-09-28T07:43:06;95739.27;;;9.03;93.21
58223;BME280;44020;50.890;15.796;2022-09-28T07:45:33;95737.61;;;9.08;93.14
58223;BME280;44020;50.890;15.796;2022-09-28T07:48:02;95733.98;;;9.12;93.14
58223;BME280;44020;50.890;15.796;2022-09-28T07:50:30;95726.40;;;9.17;92.88
58223;BME280;44020;50.890;15.796;2022-09-28T07:52:57;95723.32;;;9.24;92.87
58223;BME280;44020;50.890;15.796;2022-09-28T07:55:24;95720.14;;;9.31;92.58
58223;BME280;44020;50.890;15.796;2022-09-28T07:57:57;95719.81;;;9.40;92.76
58223;BME280;44020;50.890;15.796;2022-09-28T08:00:27;95724.11;;;9.50;92.71
58223;BME280;44020;50.890;15.796;2022-09-28T08:02:59;95729.55;;;9.58;92.32
58223;BME280;44020;50.890;15.796;2022-09-28T08:05:27;95730.88;;;9.64;91.83
58223;BME280;44020;50.890;15.796;2022-09-28T08:07:57;95732.70;;;9.69;91.63
58223;BME280;44020;50.890;15.796;2022-09-28T08:10:25;95733.68;;;9.73;91.57
58223;BME280;44020;50.890;15.796;2022-09-28T08:12:56;95732.96;;;9.77;91.25
58223;BME280;44020;50.890;15.796;2022-09-28T08:15:24;95730.02;;;9.82;91.07
58223;BME280;44020;50.890;15.796;2022-09-28T08:17:51;95725.73;;;9.84;90.61
58223;BME280;44020;50.890;15.796;2022-09-28T08:20:18;95716.78;;;9.87;90.70
58223;BME280;44020;50.890;15.796;2022-09-28T08:23:08;95716.25;;;9.90;90.27
58223;BME280;44020;50.890;15.796;2022-09-28T08:25:35;95721.77;;;9.92;89.81
58223;BME280;44020;50.890;15.796;2022-09-28T08:28:04;95723.70;;;9.94;89.53
58223;BME280;44020;50.890;15.796;2022-09-28T08:30:32;95722.34;;;9.95;89.06
58223;BME280;44020;50.890;15.796;2022-09-28T08:32:59;95727.45;;;9.97;89.04
58223;BME280;44020;50.890;15.796;2022-09-28T08:35:27;95726.83;;;9.98;88.77
58223;BME280;44020;50.890;15.796;2022-09-28T08:37:54;95723.04;;;9.98;88.47
58223;BME280;44020;50.890;15.796;2022-09-28T08:40:23;95721.73;;;9.98;87.92
58223;BME280;44020;50.890;15.796;2022-09-28T08:42:55;95723.15;;;9.96;87.78
58223;BME280;44020;50.890;15.796;2022-09-28T08:45:28;95725.40;;;9.95;87.70
58223;BME280;44020;50.890;15.796;2022-09-28T08:48:08;95721.32;;;9.93;87.54
58223;BME280;44020;50.890;15.796;2022-09-28T08:51:06;95721.91;;;9.92;87.67
58223;BME280;44020;50.890;15.796;2022-09-28T08:54:29;95720.27;;;9.91;87.28
58223;BME280;44020;50.890;15.796;2022-09-28T08:57:08;95726.05;;;9.90;87.19
58223;BME280;44020;50.890;15.796;2022-09-28T08:59:52;95724.92;;;9.89;87.04
58223;BME280;44020;50.890;15.796;2022-09-28T09:02:34;95720.80;;;9.87;86.82
58223;BME280;44020;50.890;15.796;2022-09-28T09:05:09;95714.21;;;9.86;86.57
58223;BME280;44020;50.890;15.796;2022-09-28T09:15:51;95722.02;;;9.82;86.11
58223;BME280;44020;50.890;15.796;2022-09-28T09:20:58;95719.08;;;9.80;86.08
58223;BME280;44020;50.890;15.796;2022-09-28T09:23:55;95716.45;;;9.77;86.09
58223;BME280;44020;50.890;15.796;2022-09-28T09:26:39;95716.75;;;9.76;86.04
58223;BME280;44020;50.890;15.796;2022-09-28T09:48:25;95723.91;;;9.69;85.84
58223;BME280;44020;50.890;15.796;2022-09-28T09:50:59;95725.83;;;9.69;85.78
58223;BME280;44020;50.890;15.796;2022-09-28T09:54:01;95731.08;;;9.69;85.93
58223;BME280;44020;50.890;15.796;2022-09-28T09:56:38;95727.32;;;9.70;86.04
58223;BME280;44020;50.890;15.796;2022-09-28T09:59:10;95728.16;;;9.70;85.87
58223;BME280;44020;50.890;15.796;2022-09-28T10:01:40;95727.33;;;9.70;85.81
58223;BME280;44020;50.890;15.796;2022-09-28T10:04:21;95731.45;;;9.69;85.62
58223;BME280;44020;50.890;15.796;2022-09-28T10:06:55;95732.25;;;9.70;85.61
58223;BME280;44020;50.890;15.796;2022-09-28T10:09:29;95733.39;;;9.71;85.42
58223;BME280;44020;50.890;15.796;2022-09-28T10:11:58;95728.48;;;9.72;85.60
58223;BME280;44020;50.890;15.796;2022-09-28T10:14:25;95726.90;;;9.73;85.73
58223;BME280;44020;50.890;15.796;2022-09-28T10:16:54;95736.23;;;9.73;85.80
58223;BME280;44020;50.890;15.796;2022-09-28T10:19:33;95731.76;;;9.74;85.79
58223;BME280;44020;50.890;15.796;2022-09-28T10:22:03;95730.67;;;9.74;85.80
58223;BME280;44020;50.890;15.796;2022-09-28T10:24:38;95727.66;;;9.75;85.94
58223;BME280;44020;50.890;15.796;2022-09-28T10:27:12;95726.33;;;9.76;85.58
58223;BME280;44020;50.890;15.796;2022-09-28T10:29:59;95726.20;;;9.76;85.42
58223;BME280;44020;50.890;15.796;2022-09-28T10:32:41;95723.34;;;9.76;85.21
58223;BME280;44020;50.890;15.796;2022-09-28T10:35:32;95719.95;;;9.78;85.01
58223;BME280;44020;50.890;15.796;2022-09-28T10:38:18;95720.55;;;9.79;84.70
58223;BME280;44020;50.890;15.796;2022-09-28T10:40:49;95715.77;;;9.81;84.60
58223;BME280;44020;50.890;15.796;2022-09-28T10:48:53;95711.05;;;9.75;83.65
58223;BME280;44020;50.890;15.796;2022-09-28T10:51:40;95721.54;;;9.73;83.62
58223;BME280;44020;50.890;15.796;2022-09-28T10:54:18;95729.30;;;9.70;83.59
58223;BME280;44020;50.890;15.796;2022-09-28T10:56:47;95725.31;;;9.67;83.41
58223;BME280;44020;50.890;15.796;2022-09-28T11:01:55;95730.83;;;9.63;83.41
58223;BME280;44020;50.890;15.796;2022-09-28T11:04:27;95726.97;;;9.61;83.33
58223;BME280;44020;50.890;15.796;2022-09-28T11:06:55;95717.40;;;9.57;83.21
58223;BME280;44020;50.890;15.796;2022-09-28T11:09:28;95716.38;;;9.55;83.18
58223;BME280;44020;50.890;15.796;2022-09-28T11:11:59;95717.52;;;9.52;83.19
58223;BME280;44020;50.890;15.796;2022-09-28T11:14:35;95717.62;;;9.53;83.39
58223;BME280;44020;50.890;15.796;2022-09-28T11:17:32;95723.05;;;9.54;83.55
58223;BME280;44020;50.890;15.796;2022-09-28T11:22:58;95711.95;;;9.57;83.57
58223;BME280;44020;50.890;15.796;2022-09-28T11:25:29;95718.20;;;9.58;83.65
58223;BME280;44020;50.890;15.796;2022-09-28T11:28:00;95713.02;;;9.58;83.59
58223;BME280;44020;50.890;15.796;2022-09-28T11:30:43;95699.34;;;9.60;83.47
58223;BME280;44020;50.890;15.796;2022-09-28T11:33:16;95688.70;;;9.57;83.31
58223;BME280;44020;50.890;15.796;2022-09-28T11:35:55;95695.28;;;9.55;83.34
58223;BME280;44020;50.890;15.796;2022-09-28T11:38:51;95690.79;;;9.56;83.38
58223;BME280;44020;50.890;15.796;2022-09-28T11:41:56;95696.04;;;9.55;83.36
58223;BME280;44020;50.890;15.796;2022-09-28T11:44:39;95692.50;;;9.54;83.37
58223;BME280;44020;50.890;15.796;2022-09-28T11:47:31;95691.98;;;9.52;83.28
58223;BME280;44020;50.890;15.796;2022-09-28T11:50:07;95679.16;;;9.49;83.27
58223;BME280;44020;50.890;15.796;2022-09-28T11:52:55;95681.77;;;9.48;83.39
58223;BME280;44020;50.890;15.796;2022-09-28T11:55:42;95683.52;;;9.50;83.33
58223;BME280;44020;50.890;15.796;2022-09-28T12:00:58;95669.46;;;9.61;83.57
58223;BME280;44020;50.890;15.796;2022-09-28T12:03:34;95675.64;;;9.67;83.27
58223;BME280;44020;50.890;15.796;2022-09-28T12:06:08;95669.85;;;9.72;83.24
58223;BME280;44020;50.890;15.796;2022-09-28T12:08:45;95663.48;;;9.77;82.96
58223;BME280;44020;50.890;15.796;2022-09-28T12:11:20;95669.59;;;9.87;82.79
58223;BME280;44020;50.890;15.796;2022-09-28T12:13:52;95664.60;;;9.99;82.11
58223;BME280;44020;50.890;15.796;2022-09-28T12:16:23;95652.28;;;9.98;81.69
58223;BME280;44020;50.890;15.796;2022-09-28T12:18:58;95658.45;;;9.97;81.86
58223;BME280;44020;50.890;15.796;2022-09-28T12:24:04;95670.55;;;10.02;81.10
58223;BME280;44020;50.890;15.796;2022-09-28T12:29:43;95666.98;;;10.02;80.90
58223;BME280;44020;50.890;15.796;2022-09-28T12:34:56;95656.20;;;10.06;80.79
58223;BME280;44020;50.890;15.796;2022-09-28T12:37:51;95656.40;;;10.10;80.90
58223;BME280;44020;50.890;15.796;2022-09-28T12:40:50;95658.75;;;10.18;80.65
58223;BME280;44020;50.890;15.796;2022-09-28T12:46:06;95663.23;;;10.33;79.86
58223;BME280;44020;50.890;15.796;2022-09-28T12:59:19;95653.27;;;10.97;79.52
58223;BME280;44020;50.890;15.796;2022-09-28T13:05:16;95651.02;;;11.11;78.78
58223;BME280;44020;50.890;15.796;2022-09-28T13:07:56;95652.34;;;11.16;78.67
58223;BME280;44020;50.890;15.796;2022-09-28T13:21:53;95654.26;;;11.38;76.94
58223;BME280;44020;50.890;15.796;2022-09-28T13:24:28;95656.02;;;11.48;76.86
58223;BME280;44020;50.890;15.796;2022-09-28T13:27:06;95653.46;;;11.58;76.74
58223;BME280;44020;50.890;15.796;2022-09-28T13:29:37;95651.54;;;11.66;76.33
58223;BME280;44020;50.890;15.796;2022-09-28T13:32:06;95653.77;;;11.74;76.25
58223;BME280;44020;50.890;15.796;2022-09-28T13:34:46;95656.01;;;11.86;75.65
58223;BME280;44020;50.890;15.796;2022-09-28T13:39:47;95650.61;;;11.86;75.27
58223;BME280;44020;50.890;15.796;2022-09-28T13:48:35;95637.89;;;13.83;72.69
58223;BME280;44020;50.890;15.796;2022-09-28T13:58:49;95634.35;;;15.90;68.77
58223;BME280;44020;50.890;15.796;2022-09-28T14:01:38;95634.65;;;15.88;66.79
58223;BME280;44020;50.890;15.796;2022-09-28T14:04:16;95637.95;;;16.36;66.47
58223;BME280;44020;50.890;15.796;2022-09-28T14:07:22;95642.17;;;15.85;66.22
58223;BME280;44020;50.890;15.796;2022-09-28T14:14:59;95651.52;;;14.64;65.54
58223;BME280;44020;50.890;15.796;2022-09-28T14:20:14;95662.70;;;14.16;66.22
58223;BME280;44020;50.890;15.796;2022-09-28T14:25:24;95661.68;;;14.18;66.58
58223;BME280;44020;50.890;15.796;2022-09-28T14:30:54;95660.98;;;16.12;65.01
58223;BME280;44020;50.890;15.796;2022-09-28T14:33:29;95663.86;;;17.01;62.82
58223;BME280;44020;50.890;15.796;2022-09-28T14:35:59;95669.85;;;17.48;61.91
58223;BME280;44020;50.890;15.796;2022-09-28T14:38:31;95669.96;;;17.43;61.06
58223;BME280;44020;50.890;15.796;2022-09-28T14:41:31;95674.65;;;16.86;60.32
58223;BME280;44020;50.890;15.796;2022-09-28T14:44:08;95672.20;;;16.82;60.71
58223;BME280;44020;50.890;15.796;2022-09-28T14:54:23;95669.45;;;15.10;61.31
58223;BME280;44020;50.890;15.796;2022-09-28T14:59:30;95674.83;;;15.11;60.24
58223;BME280;44020;50.890;15.796;2022-09-28T15:02:34;95677.14;;;14.62;60.53
58223;BME280;44020;50.890;15.796;2022-09-28T15:05:14;95677.02;;;14.28;61.59
58223;BME280;44020;50.890;15.796;2022-09-28T15:07:47;95675.26;;;14.04;61.82
58223;BME280;44020;50.890;15.796;2022-09-28T15:10:36;95682.96;;;13.79;62.37
58223;BME280;44020;50.890;15.796;2022-09-28T15:13:16;95686.64;;;13.49;62.78
58223;BME280;44020;50.890;15.796;2022-09-28T15:15:48;95692.18;;;13.26;63.31
58223;BME280;44020;50.890;15.796;2022-09-28T15:18:46;95696.91;;;13.09;63.56
58223;BME280;44020;50.890;15.796;2022-09-28T15:21:19;95701.48;;;12.93;63.89
58223;BME280;44020;50.890;15.796;2022-09-28T15:23:47;95702.23;;;12.84;64.14
58223;BME280;44020;50.890;15.796;2022-09-28T15:28:47;95711.12;;;12.62;64.17
58223;BME280;44020;50.890;15.796;2022-09-28T15:31:19;95718.52;;;12.52;64.39
58223;BME280;44020;50.890;15.796;2022-09-28T15:33:46;95719.92;;;12.42;64.70
58223;BME280;44020;50.890;15.796;2022-09-28T15:36:43;95723.53;;;12.30;64.96
58223;BME280;44020;50.890;15.796;2022-09-28T15:39:19;95726.84;;;12.21;65.08
58223;BME280;44020;50.890;15.796;2022-09-28T15:41:49;95729.41;;;12.12;65.36
58223;BME280;44020;50.890;15.796;2022-09-28T15:44:28;95733.58;;;12.04;65.48
58223;BME280;44020;50.890;15.796;2022-09-28T15:54:53;95749.12;;;11.84;66.13
58223;BME280;44020;50.890;15.796;2022-09-28T15:57:30;95753.52;;;11.81;66.58
58223;BME280;44020;50.890;15.796;2022-09-28T15:59:59;95753.28;;;11.78;66.65
58223;BME280;44020;50.890;15.796;2022-09-28T16:02:26;95755.67;;;11.74;66.91
58223;BME280;44020;50.890;15.796;2022-09-28T16:04:56;95757.30;;;11.71;66.80
58223;BME280;44020;50.890;15.796;2022-09-28T16:17:49;95781.98;;;11.58;68.31
58223;BME280;44020;50.890;15.796;2022-09-28T16:20:27;95782.41;;;11.52;68.63
58223;BME280;44020;50.890;15.796;2022-09-28T16:22:59;95786.10;;;11.45;68.68
58223;BME280;44020;50.890;15.796;2022-09-28T16:25:33;95787.84;;;11.39;68.94
58223;BME280;44020;50.890;15.796;2022-09-28T16:28:03;95791.27;;;11.35;69.19